createdAt,value
2022-12-05T00:01:22.576Z,30.87
2022-12-05T00:03:51.589Z,23.73
2022-12-05T00:06:19.829Z,24.90
2022-12-05T00:08:47.379Z,24.23
2022-12-05T00:11:17.377Z,27.97
2022-12-05T00:13:44.625Z,24.37
2022-12-05T00:16:14.219Z,23.63
2022-12-05T00:18:41.878Z,23.07
2022-12-05T00:21:12.947Z,21.73
2022-12-05T00:23:39.663Z,23.47
2022-12-05T00:26:06.856Z,22.83
2022-12-05T00:28:34.478Z,26.30
2022-12-05T00:31:05.981Z,25.80
2022-12-05T00:33:32.769Z,23.40
2022-12-05T00:36:08.134Z,21.87
2022-12-05T00:38:34.935Z,23.50
2022-12-05T00:41:09.553Z,22.47
2022-12-05T00:43:37.001Z,26.33
2022-12-05T00:46:15.508Z,21.83
2022-12-05T00:48:42.654Z,24.13
2022-12-05T00:51:12.813Z,22.70
2022-12-05T00:53:39.746Z,22.70
2022-12-05T00:56:11.800Z,23.50
2022-12-05T00:58:39.209Z,24.23
2022-12-05T01:01:11.009Z,24.50
2022-12-05T01:03:38.654Z,22.63
2022-12-05T01:06:06.408Z,25.00
2022-12-05T01:08:34.530Z,21.30
2022-12-05T01:11:02.384Z,27.57
2022-12-05T01:13:29.581Z,22.10
2022-12-05T01:15:56.553Z,22.87
2022-12-05T01:18:24.395Z,25.63
2022-12-05T01:20:52.008Z,23.30
2022-12-05T01:23:19.196Z,22.10
2022-12-05T01:25:48.949Z,23.43
2022-12-05T01:28:16.956Z,21.53
2022-12-05T01:30:46.544Z,21.37
2022-12-05T01:33:13.358Z,23.97
2022-12-05T01:35:40.924Z,23.50
2022-12-05T01:38:08.398Z,21.97
2022-12-05T01:40:38.493Z,22.13
2022-12-05T01:43:13.998Z,23.27
2022-12-05T01:45:44.177Z,22.00
2022-12-05T01:48:28.046Z,24.97
2022-12-05T01:50:55.240Z,22.87
2022-12-05T01:53:22.728Z,19.23
2022-12-05T01:55:50.848Z,21.13
2022-12-05T01:58:18.710Z,19.50
2022-12-05T02:00:45.967Z,22.23
2022-12-05T02:03:18.288Z,22.00
2022-12-05T02:05:48.555Z,20.50
2022-12-05T02:08:15.430Z,19.13
2022-12-05T02:10:48.638Z,22.23
2022-12-05T02:13:50.072Z,21.20
2022-12-05T02:16:36.429Z,22.70
2022-12-05T02:19:39.566Z,21.67
2022-12-05T02:22:46.173Z,20.40
2022-12-05T02:25:12.828Z,19.10
2022-12-05T02:28:25.677Z,20.17
2022-12-05T02:30:56.979Z,24.87
2022-12-05T02:33:46.220Z,22.33
2022-12-05T02:36:39.143Z,25.73
2022-12-05T02:39:22.654Z,21.90
2022-12-05T02:42:12.477Z,25.63
2022-12-05T02:45:00.143Z,25.67
2022-12-05T02:47:30.261Z,28.20
2022-12-05T02:49:58.113Z,22.03
2022-12-05T02:52:25.985Z,26.20
2022-12-05T02:54:54.990Z,24.50
2022-12-05T02:57:24.636Z,25.23
2022-12-05T02:59:51.719Z,26.90
2022-12-05T03:02:40.226Z,25.40
2022-12-05T03:05:27.828Z,23.97
2022-12-05T03:07:58.036Z,26.33
2022-12-05T03:10:27.845Z,24.30
2022-12-05T03:13:00.233Z,28.07
2022-12-05T03:15:31.984Z,24.00
2022-12-05T03:18:20.834Z,24.17
2022-12-05T03:20:53.956Z,25.50
2022-12-05T03:23:30.670Z,23.77
2022-12-05T03:26:14.347Z,23.87
2022-12-05T03:29:08.130Z,20.80
2022-12-05T03:31:42.329Z,23.70
2022-12-05T03:34:16.497Z,26.20
2022-12-05T03:36:48.585Z,24.67
2022-12-05T03:39:26.946Z,21.47
2022-12-05T03:42:03.064Z,22.87
2022-12-05T03:44:41.291Z,27.83
2022-12-05T03:47:16.674Z,22.77
2022-12-05T03:49:51.772Z,25.07
2022-12-05T03:52:23.854Z,26.27
2022-12-05T03:55:16.394Z,24.27
2022-12-05T03:57:48.793Z,23.57
2022-12-05T04:00:18.713Z,19.70
2022-12-05T04:03:07.328Z,22.70
2022-12-05T04:05:54.829Z,22.00
2022-12-05T04:08:34.480Z,27.00
2022-12-05T04:11:06.321Z,21.27
2022-12-05T04:13:51.847Z,24.13
2022-12-05T04:16:48.046Z,20.70
2022-12-05T04:19:26.891Z,21.17
2022-12-05T04:21:56.600Z,20.20
2022-12-05T04:24:47.071Z,17.30
2022-12-05T04:27:22.809Z,17.77
2022-12-05T04:30:03.568Z,17.57
2022-12-05T04:32:45.484Z,17.77
2022-12-05T04:35:20.612Z,21.57
2022-12-05T04:37:51.521Z,16.00
2022-12-05T04:40:23.434Z,17.17
2022-12-05T04:42:53.358Z,15.87
2022-12-05T04:45:22.825Z,16.77
2022-12-05T04:47:55.446Z,16.10
2022-12-05T04:50:24.243Z,16.93
2022-12-05T04:52:54.642Z,15.70
2022-12-05T04:55:26.107Z,15.07
2022-12-05T04:58:01.575Z,13.87
2022-12-05T05:00:30.649Z,13.50
2022-12-05T05:03:19.031Z,14.30
2022-12-05T05:05:49.301Z,14.93
2022-12-05T05:08:20.454Z,14.30
2022-12-05T05:11:04.266Z,14.73
2022-12-05T05:13:31.147Z,14.97
2022-12-05T05:15:57.896Z,17.43
2022-12-05T05:18:24.590Z,17.83
2022-12-05T05:20:51.320Z,17.80
2022-12-05T05:23:17.954Z,15.07
2022-12-05T05:25:44.652Z,15.43
2022-12-05T05:28:11.342Z,17.83
2022-12-05T05:30:38.022Z,16.97
2022-12-05T05:33:04.717Z,16.30
2022-12-05T05:35:31.362Z,17.30
2022-12-05T05:37:58.048Z,15.57
2022-12-05T05:40:24.768Z,13.67
2022-12-05T05:42:51.441Z,15.90
2022-12-05T05:45:18.129Z,14.43
2022-12-05T05:47:45.496Z,13.93
2022-12-05T05:50:17.862Z,16.10
2022-12-05T05:52:47.680Z,17.00
2022-12-05T05:55:15.145Z,18.17
2022-12-05T05:57:41.813Z,14.80
2022-12-05T06:00:09.252Z,18.23
2022-12-05T06:02:36.576Z,18.17
2022-12-05T06:05:04.526Z,17.48
2022-12-05T06:07:31.459Z,15.00
2022-12-05T06:09:58.442Z,17.20
2022-12-05T06:12:25.423Z,18.97
2022-12-05T06:14:52.640Z,20.50
2022-12-05T06:17:19.441Z,23.23
2022-12-05T06:19:46.215Z,26.30
2022-12-05T06:22:13.187Z,15.97
2022-12-05T06:24:39.891Z,19.23
2022-12-05T06:27:06.944Z,18.13
2022-12-05T06:29:35.562Z,15.37
2022-12-05T06:32:02.506Z,13.73
2022-12-05T06:34:29.465Z,17.27
2022-12-05T06:36:56.130Z,16.67
2022-12-05T06:39:22.869Z,18.17
2022-12-05T06:41:49.582Z,14.63
2022-12-05T06:44:16.582Z,16.47
2022-12-05T06:46:43.297Z,13.30
2022-12-05T06:49:10.559Z,13.50
2022-12-05T06:51:37.326Z,16.40
2022-12-05T06:54:04.131Z,11.93
2022-12-05T06:56:30.926Z,14.23
2022-12-05T06:58:58.000Z,15.53
2022-12-05T07:01:41.480Z,14.03
2022-12-05T07:04:21.463Z,13.80
2022-12-05T07:06:51.483Z,11.77
2022-12-05T07:09:21.181Z,13.23
2022-12-05T07:11:51.319Z,14.90
2022-12-05T07:14:45.337Z,11.67
2022-12-05T07:17:05.259Z,11.67
2022-12-05T07:19:32.291Z,13.03
2022-12-05T07:21:58.946Z,15.40
2022-12-05T07:24:26.001Z,16.13
2022-12-05T07:26:52.734Z,13.73
2022-12-05T07:29:19.828Z,12.67
2022-12-05T07:31:46.529Z,12.03
2022-12-05T07:34:13.346Z,11.53
2022-12-05T07:36:40.037Z,11.47
2022-12-05T07:39:06.741Z,11.30
2022-12-05T07:41:34.968Z,11.90
2022-12-05T07:44:06.688Z,13.77
2022-12-05T07:46:33.367Z,13.03
2022-12-05T07:49:00.129Z,15.50
2022-12-05T07:51:26.767Z,11.23
2022-12-05T07:53:53.535Z,11.80
2022-12-05T07:56:21.562Z,12.17
2022-12-05T07:58:50.036Z,15.50
2022-12-05T08:01:25.408Z,10.90
2022-12-05T08:03:56.993Z,12.30
2022-12-05T08:06:27.422Z,13.23
2022-12-05T08:08:55.135Z,11.47
2022-12-05T08:11:27.512Z,12.70
2022-12-05T08:13:54.688Z,12.17
2022-12-05T08:16:23.919Z,13.37
2022-12-05T08:18:59.058Z,12.60
2022-12-05T08:21:25.840Z,16.57
2022-12-05T08:23:52.836Z,15.73
2022-12-05T08:26:28.276Z,15.30
2022-12-05T08:28:59.175Z,14.50
2022-12-05T08:31:30.173Z,13.20
2022-12-05T08:33:59.331Z,18.73
2022-12-05T08:36:28.460Z,13.00
2022-12-05T08:39:00.341Z,16.03
2022-12-05T08:41:29.814Z,14.30
2022-12-05T08:43:58.230Z,19.07
2022-12-05T08:46:25.008Z,18.10
2022-12-05T08:48:52.093Z,16.13
2022-12-05T08:51:18.773Z,20.77
2022-12-05T08:53:45.605Z,18.60
2022-12-05T08:56:12.649Z,16.60
2022-12-05T08:58:40.115Z,19.23
2022-12-05T09:01:09.407Z,16.97
2022-12-05T09:03:36.405Z,16.83
2022-12-05T09:06:12.364Z,19.37
2022-12-05T09:08:39.782Z,17.23
2022-12-05T09:11:13.367Z,16.43
2022-12-05T09:13:40.355Z,15.33
2022-12-05T09:16:12.273Z,18.83
2022-12-05T09:18:39.070Z,15.67
2022-12-05T09:21:11.864Z,21.57
2022-12-05T09:23:39.174Z,22.33
2022-12-05T09:26:10.897Z,21.13
2022-12-05T09:28:38.369Z,17.80
2022-12-05T09:31:08.445Z,17.43
2022-12-05T09:33:37.244Z,20.27
2022-12-05T09:36:17.082Z,18.63
2022-12-05T09:38:44.318Z,24.90
2022-12-05T09:41:59.485Z,19.73
2022-12-05T09:44:53.896Z,19.80
2022-12-05T09:47:26.237Z,18.70
2022-12-05T09:50:12.714Z,20.53
2022-12-05T09:52:43.652Z,18.67
2022-12-05T09:55:14.744Z,22.37
2022-12-05T09:57:48.312Z,19.97
2022-12-05T10:00:15.616Z,22.67
2022-12-05T10:02:59.849Z,18.53
2022-12-05T10:05:53.777Z,20.43
2022-12-05T10:08:33.409Z,22.43
2022-12-05T10:11:04.945Z,20.80
2022-12-05T10:14:02.529Z,20.97
2022-12-05T10:16:31.572Z,24.33
2022-12-05T10:19:11.067Z,21.50
2022-12-05T10:22:00.974Z,25.77
2022-12-05T10:24:51.423Z,20.43
2022-12-05T10:27:40.899Z,21.77
2022-12-05T10:30:17.699Z,19.70
2022-12-05T10:32:54.553Z,24.53
2022-12-05T10:35:28.084Z,22.13
2022-12-05T10:38:04.229Z,21.13
2022-12-05T10:40:37.531Z,20.87
2022-12-05T10:43:08.859Z,20.10
2022-12-05T10:45:48.041Z,21.80
2022-12-05T10:48:17.654Z,19.50
2022-12-05T10:50:48.411Z,24.20
2022-12-05T10:53:23.562Z,24.27
2022-12-05T10:56:28.242Z,23.43
2022-12-05T10:58:56.495Z,34.37
2022-12-05T11:01:25.554Z,25.20
2022-12-05T11:04:01.728Z,27.10
2022-12-05T11:06:31.646Z,23.97
2022-12-05T11:09:13.648Z,21.63
2022-12-05T11:11:40.442Z,21.57
2022-12-05T11:14:21.614Z,44.33
2022-12-05T11:16:55.190Z,35.63
2022-12-05T11:19:21.800Z,21.10
2022-12-05T11:21:51.679Z,19.73
2022-12-05T11:24:32.531Z,20.90
2022-12-05T11:27:17.760Z,19.77
2022-12-05T11:30:10.067Z,20.63
2022-12-05T11:32:36.734Z,17.87
2022-12-05T11:35:12.228Z,18.90
2022-12-05T11:38:01.143Z,23.10
2022-12-05T11:40:38.357Z,21.83
2022-12-05T11:43:39.016Z,17.17
2022-12-05T11:46:48.416Z,17.80
2022-12-05T11:49:18.145Z,15.13
2022-12-05T11:51:53.906Z,14.43
2022-12-05T11:55:06.459Z,19.30
2022-12-05T11:57:39.728Z,14.50
2022-12-05T12:00:12.391Z,15.97
2022-12-05T12:03:00.335Z,14.70
2022-12-05T12:05:33.419Z,14.80
2022-12-05T12:08:18.711Z,13.97
2022-12-05T12:11:23.957Z,13.83
2022-12-05T12:14:20.452Z,13.50
2022-12-05T12:17:16.442Z,10.93
2022-12-05T12:19:43.078Z,11.40
2022-12-05T12:22:27.806Z,14.17
2022-12-05T12:25:19.646Z,12.23
2022-12-05T12:28:04.155Z,14.20
2022-12-05T12:31:20.884Z,15.20
2022-12-05T12:33:54.968Z,17.60
2022-12-05T12:36:38.953Z,12.10
2022-12-05T12:39:26.997Z,13.97
2022-12-05T12:42:14.789Z,10.63
2022-12-05T12:45:13.009Z,9.03
2022-12-05T12:47:44.819Z,8.03
2022-12-05T12:50:11.631Z,5.73
2022-12-05T12:52:58.630Z,6.80
2022-12-05T12:55:38.569Z,10.30
2022-12-05T12:58:19.751Z,13.60
2022-12-05T13:01:04.542Z,8.57
2022-12-05T13:03:40.705Z,8.33
2022-12-05T13:06:17.609Z,8.77
2022-12-05T13:08:56.249Z,8.87
2022-12-05T13:11:23.728Z,8.00
2022-12-05T13:13:56.578Z,9.07
2022-12-05T13:16:32.306Z,6.57
2022-12-05T13:19:00.001Z,6.50
2022-12-05T13:21:27.954Z,5.53
2022-12-05T13:23:59.178Z,5.47
2022-12-05T13:26:25.968Z,5.97
2022-12-05T13:29:05.051Z,5.23
2022-12-05T13:31:37.560Z,4.33
2022-12-05T13:34:04.448Z,16.23
2022-12-05T13:36:58.945Z,3.80
2022-12-05T13:39:44.351Z,3.77
2022-12-05T13:42:24.421Z,4.77
2022-12-05T13:44:58.177Z,4.77
2022-12-05T13:48:12.573Z,4.67
2022-12-05T13:50:54.124Z,5.13
2022-12-05T13:53:37.434Z,3.30
2022-12-05T13:56:12.971Z,2.07
2022-12-05T13:58:46.802Z,3.17
2022-12-05T14:01:30.767Z,2.87
2022-12-05T14:04:00.299Z,2.40
2022-12-05T14:06:38.649Z,2.20
2022-12-05T14:09:17.599Z,2.57
2022-12-05T14:12:12.253Z,2.30
2022-12-05T14:14:57.369Z,4.00
2022-12-05T14:17:41.054Z,3.20
2022-12-05T14:20:22.402Z,3.10
2022-12-05T14:23:15.164Z,3.10
2022-12-05T14:26:11.014Z,2.20
2022-12-05T14:28:46.594Z,3.57
2022-12-05T14:31:54.983Z,4.30
2022-12-05T14:34:30.826Z,3.50
2022-12-05T14:37:05.800Z,2.70
2022-12-05T14:39:37.812Z,3.60
2022-12-05T14:42:19.705Z,4.20
2022-12-05T14:44:48.711Z,3.27
2022-12-05T14:47:21.691Z,2.83
2022-12-05T14:49:55.789Z,5.07
2022-12-05T14:52:25.836Z,3.70
2022-12-05T14:54:55.085Z,4.07
2022-12-05T14:57:22.907Z,7.67
2022-12-05T14:59:53.970Z,2.67
2022-12-05T15:02:27.687Z,3.23
2022-12-05T15:05:15.298Z,3.70
2022-12-05T15:07:44.005Z,4.10
2022-12-05T15:10:11.049Z,2.50
2022-12-05T15:12:48.481Z,2.50
2022-12-05T15:15:29.900Z,4.33
2022-12-05T15:18:21.372Z,5.23
2022-12-05T15:21:08.743Z,4.57
2022-12-05T15:23:55.507Z,2.97
2022-12-05T15:26:47.297Z,3.10
2022-12-05T15:29:26.879Z,6.03
2022-12-05T15:31:59.142Z,12.87
2022-12-05T15:34:31.634Z,18.77
2022-12-05T15:37:16.640Z,20.93
2022-12-05T15:39:53.796Z,9.23
2022-12-05T15:42:30.183Z,10.80
2022-12-05T15:45:15.074Z,9.83
2022-12-05T15:47:50.922Z,13.73
2022-12-05T15:50:35.534Z,7.20
2022-12-05T15:53:25.231Z,4.20
2022-12-05T15:55:56.356Z,3.17
2022-12-05T15:58:55.321Z,7.47
2022-12-05T16:01:24.365Z,6.73
2022-12-05T16:04:02.551Z,9.53
2022-12-05T16:06:31.701Z,9.37
2022-12-05T16:09:00.190Z,8.93
2022-12-05T16:11:27.191Z,7.47
2022-12-05T16:14:00.898Z,5.83
2022-12-05T16:16:32.223Z,5.43
2022-12-05T16:19:04.718Z,5.20
2022-12-05T16:21:41.636Z,4.53
2022-12-05T16:24:21.551Z,3.93
2022-12-05T16:27:01.756Z,4.33
2022-12-05T16:29:31.053Z,3.03
2022-12-05T16:32:02.416Z,11.40
2022-12-05T16:34:33.241Z,15.13
2022-12-05T16:37:00.604Z,5.00
2022-12-05T16:39:28.452Z,5.03
2022-12-05T16:41:55.399Z,4.23
2022-12-05T16:44:31.756Z,5.03
2022-12-05T16:46:58.614Z,5.67
2022-12-05T16:49:33.234Z,4.13
2022-12-05T16:52:09.116Z,4.30
2022-12-05T16:54:35.947Z,4.43
2022-12-05T16:57:03.988Z,3.70
2022-12-05T16:59:38.894Z,3.93
2022-12-05T17:02:11.799Z,3.93
2022-12-05T17:04:38.840Z,4.77
2022-12-05T17:07:05.661Z,4.70
2022-12-05T17:09:32.386Z,4.73
2022-12-05T17:12:18.531Z,5.27
2022-12-05T17:14:47.056Z,4.97
2022-12-05T17:17:15.735Z,3.43
2022-12-05T17:19:42.998Z,4.03
2022-12-05T17:22:12.001Z,9.87
2022-12-05T17:24:38.678Z,7.10
2022-12-05T17:27:14.531Z,5.40
2022-12-05T17:29:41.208Z,5.50
2022-12-05T17:32:10.126Z,6.00
2022-12-05T17:34:36.795Z,5.23
2022-12-05T17:37:03.466Z,4.60
2022-12-05T17:39:30.097Z,4.97
2022-12-05T17:41:56.827Z,6.77
2022-12-05T17:44:24.007Z,4.50
2022-12-05T17:46:50.856Z,4.07
2022-12-05T17:49:18.252Z,4.83
2022-12-05T17:52:13.534Z,5.83
2022-12-05T17:54:31.828Z,4.83
2022-12-05T17:56:58.534Z,4.20
2022-12-05T17:59:25.194Z,4.23
2022-12-05T18:01:51.860Z,9.37
2022-12-05T18:04:22.835Z,12.30
2022-12-05T18:06:50.328Z,18.37
2022-12-05T18:09:17.023Z,5.73
2022-12-05T18:11:43.698Z,10.77
2022-12-05T18:14:10.510Z,6.10
2022-12-05T18:16:37.650Z,19.30
2022-12-05T18:19:04.444Z,8.23
2022-12-05T18:21:31.232Z,8.07
2022-12-05T18:23:57.967Z,10.03
2022-12-05T18:26:24.651Z,8.97
2022-12-05T18:28:53.644Z,7.17
2022-12-05T18:31:20.356Z,7.53
2022-12-05T18:33:47.064Z,7.23
2022-12-05T18:36:17.981Z,9.67
2022-12-05T18:38:51.307Z,10.50
2022-12-05T18:41:18.070Z,9.47
2022-12-05T18:43:44.757Z,9.67
2022-12-05T18:46:11.742Z,5.93
2022-12-05T18:48:41.403Z,5.83
2022-12-05T18:51:17.115Z,4.87
2022-12-05T18:53:51.434Z,5.97
2022-12-05T18:56:22.644Z,5.70
2022-12-05T18:58:58.869Z,5.90
2022-12-05T19:01:27.274Z,6.30
2022-12-05T19:03:55.953Z,4.90
2022-12-05T19:06:24.791Z,5.93
2022-12-05T19:08:55.101Z,5.53
2022-12-05T19:11:22.775Z,5.97
2022-12-05T19:13:50.045Z,41.20
2022-12-05T19:16:18.438Z,10.83
2022-12-05T19:18:46.055Z,6.80
2022-12-05T19:21:13.330Z,5.37
2022-12-05T19:23:40.132Z,6.70
2022-12-05T19:26:08.294Z,11.83
2022-12-05T19:28:36.628Z,9.00
2022-12-05T19:31:09.253Z,8.60
2022-12-05T19:33:47.014Z,6.93
2022-12-05T19:36:19.771Z,5.30
2022-12-05T19:38:48.202Z,3.70
2022-12-05T19:41:17.029Z,5.50
2022-12-05T19:43:45.046Z,4.13
2022-12-05T19:46:27.562Z,6.33
2022-12-05T19:48:59.582Z,3.87
2022-12-05T19:51:26.419Z,4.37
2022-12-05T19:53:53.176Z,6.23
2022-12-05T19:56:25.181Z,4.50
2022-12-05T19:58:53.681Z,3.77
2022-12-05T20:01:21.846Z,4.13
2022-12-05T20:03:53.507Z,4.33
2022-12-05T20:06:20.965Z,6.33
2022-12-05T20:08:48.703Z,6.83
2022-12-05T20:11:17.833Z,6.57
2022-12-05T20:13:47.307Z,7.80
2022-12-05T20:16:18.545Z,6.30
2022-12-05T20:18:45.922Z,4.97
2022-12-05T20:21:14.890Z,4.90
2022-12-05T20:23:42.097Z,9.40
2022-12-05T20:26:14.743Z,7.30
2022-12-05T20:28:42.026Z,5.97
2022-12-05T20:31:23.387Z,6.40
2022-12-05T20:33:51.894Z,5.50
2022-12-05T20:36:24.078Z,6.20
2022-12-05T20:38:59.064Z,4.83
2022-12-05T20:41:26.744Z,7.13
2022-12-05T20:43:56.855Z,4.73
2022-12-05T20:46:24.092Z,5.40
2022-12-05T20:48:53.084Z,5.00
2022-12-05T20:51:22.333Z,5.60
2022-12-05T20:53:49.488Z,5.63
2022-12-05T20:56:19.121Z,7.07
2022-12-05T20:58:51.476Z,7.70
2022-12-05T21:01:20.323Z,5.77
2022-12-05T21:03:49.670Z,4.73
2022-12-05T21:06:31.313Z,4.17
2022-12-05T21:08:59.141Z,5.13
2022-12-05T21:11:27.382Z,4.63
2022-12-05T21:14:00.244Z,7.63
2022-12-05T21:16:27.619Z,4.70
2022-12-05T21:18:55.915Z,5.10
2022-12-05T21:21:24.669Z,4.27
2022-12-05T21:23:55.610Z,9.80
2022-12-05T21:26:23.325Z,4.93
2022-12-05T21:28:50.123Z,4.10
2022-12-05T21:31:26.742Z,3.47
2022-12-05T21:33:56.144Z,4.73
2022-12-05T21:36:24.148Z,5.40
2022-12-05T21:38:55.946Z,4.60
2022-12-05T21:41:27.012Z,3.00
2022-12-05T21:43:55.634Z,2.63
2022-12-05T21:46:24.724Z,4.47
2022-12-05T21:48:51.689Z,3.97
2022-12-05T21:51:18.405Z,2.80
2022-12-05T21:53:45.051Z,3.07
2022-12-05T21:56:17.223Z,2.17
2022-12-05T21:58:45.857Z,3.37
2022-12-05T22:01:19.811Z,5.07
2022-12-05T22:03:46.947Z,1.97
2022-12-05T22:06:15.248Z,2.83
2022-12-05T22:08:42.054Z,3.43
2022-12-05T22:11:12.107Z,5.10
2022-12-05T22:13:39.361Z,2.93
2022-12-05T22:16:07.522Z,4.03
2022-12-05T22:18:35.090Z,2.60
2022-12-05T22:21:12.749Z,3.63
2022-12-05T22:23:39.541Z,3.23
2022-12-05T22:26:15.161Z,2.60
2022-12-05T22:28:41.803Z,2.60
2022-12-05T22:31:11.552Z,3.67
2022-12-05T22:33:38.660Z,4.17
2022-12-05T22:36:08.451Z,3.67
2022-12-05T22:38:37.426Z,4.10
2022-12-05T22:41:07.208Z,3.57
2022-12-05T22:43:35.996Z,3.47
2022-12-05T22:46:06.656Z,3.37
2022-12-05T22:48:34.239Z,3.53
2022-12-05T22:51:02.716Z,4.70
2022-12-05T22:53:30.090Z,4.30
2022-12-05T22:56:09.569Z,4.73
2022-12-05T22:58:36.897Z,4.27
2022-12-05T23:01:10.658Z,4.53
2022-12-05T23:03:37.742Z,3.33
2022-12-05T23:06:11.206Z,3.40
2022-12-05T23:08:39.833Z,3.80
2022-12-05T23:11:07.055Z,3.17
2022-12-05T23:13:34.929Z,4.23
2022-12-05T23:16:07.239Z,3.97
2022-12-05T23:18:46.637Z,4.43
2022-12-05T23:21:19.736Z,4.83
2022-12-05T23:23:47.873Z,4.50
2022-12-05T23:26:18.467Z,5.27
2022-12-05T23:28:45.517Z,3.23
2022-12-05T23:31:12.806Z,3.33
2022-12-05T23:33:40.234Z,4.57
2022-12-05T23:36:08.033Z,4.63
2022-12-05T23:38:36.014Z,4.07
2022-12-05T23:41:08.761Z,5.83
2022-12-05T23:43:36.654Z,3.83
2022-12-05T23:46:05.397Z,4.30
2022-12-05T23:48:32.415Z,5.80
2022-12-05T23:51:05.254Z,2.97
2022-12-05T23:53:33.811Z,6.07
2022-12-05T23:56:02.830Z,6.43
2022-12-05T23:58:31.001Z,4.53
